sensor_id;sensor_type;location;lat;lon;timestamp;pressure;altitude;pressure_sealevel;temperature;humidity
69737;BME280;64476;55.004;73.342;2023-02-28T00:02:30;100583.03;;;-4.05;64.61
69737;BME280;64476;55.004;73.342;2023-02-28T00:05:42;100561.38;;;-4.18;64.48
69737;BME280;64476;55.004;73.342;2023-02-28T00:08:44;100580.09;;;-3.96;63.87
69737;BME280;64476;55.004;73.342;2023-02-28T00:11:46;100563.97;;;-3.99;64.17
69737;BME280;64476;55.004;73.342;2023-02-28T00:14:48;100541.13;;;-4.06;63.69
69737;BME280;64476;55.004;73.342;2023-02-28T00:17:50;100569.19;;;-3.82;63.17
69737;BME280;64476;55.004;73.342;2023-02-28T00:20:52;100571.97;;;-3.87;63.55
69737;BME280;64476;55.004;73.342;2023-02-28T00:24:04;100568.66;;;-3.89;63.50
69737;BME280;64476;55.004;73.342;2023-02-28T00:27:16;100572.44;;;-3.97;63.60
69737;BME280;64476;55.004;73.342;2023-02-28T00:30:21;100525.44;;;-4.18;63.67
69737;BME280;64476;55.004;73.342;2023-02-28T00:33:26;100558.38;;;-3.89;63.29
69737;BME280;64476;55.004;73.342;2023-02-28T00:36:40;100547.53;;;-3.95;63.60
69737;BME280;64476;55.004;73.342;2023-02-28T00:39:52;100548.56;;;-3.99;63.41
69737;BME280;64476;55.004;73.342;2023-02-28T00:42:54;100521.78;;;-4.13;63.84
69737;BME280;64476;55.004;73.342;2023-02-28T00:45:55;100531.22;;;-4.13;63.81
69737;BME280;64476;55.004;73.342;2023-02-28T00:48:59;100547.66;;;-3.98;63.97
69737;BME280;64476;55.004;73.342;2023-02-28T00:52:01;100504.97;;;-4.20;63.56
69737;BME280;64476;55.004;73.342;2023-02-28T00:55:03;100539.34;;;-4.04;63.73
69737;BME280;64476;55.004;73.342;2023-02-28T00:58:14;100538.22;;;-3.98;63.65
69737;BME280;64476;55.004;73.342;2023-02-28T01:01:15;100463.78;;;-4.36;63.55
69737;BME280;64476;55.004;73.342;2023-02-28T01:04:17;100520.25;;;-3.98;63.20
69737;BME280;64476;55.004;73.342;2023-02-28T01:07:51;100524.56;;;-3.98;63.48
69737;BME280;64476;55.004;73.342;2023-02-28T01:10:53;100517.63;;;-3.96;63.39
69737;BME280;64476;55.004;73.342;2023-02-28T01:13:55;100518.97;;;-3.88;63.02
69737;BME280;64476;55.004;73.342;2023-02-28T01:17:08;100454.84;;;-4.08;63.05
69737;BME280;64476;55.004;73.342;2023-02-28T01:20:12;100505.34;;;-3.71;63.16
69737;BME280;64476;55.004;73.342;2023-02-28T01:23:14;100453.13;;;-3.89;62.29
69737;BME280;64476;55.004;73.342;2023-02-28T01:26:20;100454.47;;;-4.01;62.84
69737;BME280;64476;55.004;73.342;2023-02-28T01:29:22;100480.09;;;-3.80;62.08
69737;BME280;64476;55.004;73.342;2023-02-28T01:32:34;100432.03;;;-3.95;62.33
69737;BME280;64476;55.004;73.342;2023-02-28T01:35:36;100485.28;;;-3.82;62.19
69737;BME280;64476;55.004;73.342;2023-02-28T01:38:39;100478.28;;;-3.78;62.35
69737;BME280;64476;55.004;73.342;2023-02-28T01:41:45;100475.78;;;-3.80;62.50
69737;BME280;64476;55.004;73.342;2023-02-28T01:45:03;100434.72;;;-4.17;62.36
69737;BME280;64476;55.004;73.342;2023-02-28T01:48:15;100420.25;;;-4.18;62.46
69737;BME280;64476;55.004;73.342;2023-02-28T01:51:22;100420.25;;;-4.18;62.42
69737;BME280;64476;55.004;73.342;2023-02-28T01:54:30;100474.06;;;-3.79;62.09
69737;BME280;64476;55.004;73.342;2023-02-28T01:57:35;100473.66;;;-3.70;61.84
69737;BME280;64476;55.004;73.342;2023-02-28T02:00:40;100420.78;;;-4.12;61.53
69737;BME280;64476;55.004;73.342;2023-02-28T02:03:46;100457.13;;;-3.83;61.63
69737;BME280;64476;55.004;73.342;2023-02-28T02:06:49;100460.81;;;-3.70;61.25
69737;BME280;64476;55.004;73.342;2023-02-28T02:10:00;100448.47;;;-3.81;61.00
69737;BME280;64476;55.004;73.342;2023-02-28T02:13:19;100455.13;;;-3.77;61.36
69737;BME280;64476;55.004;73.342;2023-02-28T02:16:45;100455.22;;;-3.61;60.46
69737;BME280;64476;55.004;73.342;2023-02-28T02:23:24;100442.66;;;-3.48;60.21
69737;BME280;64476;55.004;73.342;2023-02-28T02:33:43;100441.59;;;-3.27;60.00
69737;BME280;64476;55.004;73.342;2023-02-28T02:37:21;100444.16;;;-3.27;60.09
69737;BME280;64476;55.004;73.342;2023-02-28T02:40:33;100428.53;;;-3.22;60.03
69737;BME280;64476;55.004;73.342;2023-02-28T02:44:02;100369.91;;;-3.48;59.66
69737;BME280;64476;55.004;73.342;2023-02-28T02:47:21;100340.84;;;-3.68;59.59
69737;BME280;64476;55.004;73.342;2023-02-28T02:50:38;100361.28;;;-3.47;59.20
69737;BME280;64476;55.004;73.342;2023-02-28T02:53:49;100392.47;;;-3.38;59.22
69737;BME280;64476;55.004;73.342;2023-02-28T02:57:10;100340.31;;;-3.74;59.71
69737;BME280;64476;55.004;73.342;2023-02-28T03:00:24;100404.47;;;-3.38;59.72
69737;BME280;64476;55.004;73.342;2023-02-28T03:03:29;100217.69;;;-4.58;59.75
69737;BME280;64476;55.004;73.342;2023-02-28T03:06:32;100189.22;;;-4.89;59.75
69737;BME280;64476;55.004;73.342;2023-02-28T03:09:34;100378.50;;;-3.67;60.26
69737;BME280;64476;55.004;73.342;2023-02-28T03:24:05;100404.88;;;-3.82;60.67
69737;BME280;64476;55.004;73.342;2023-02-28T03:27:17;100361.34;;;-4.03;61.03
69737;BME280;64476;55.004;73.342;2023-02-28T03:34:32;100361.84;;;-4.13;61.83
69737;BME280;64476;55.004;73.342;2023-02-28T03:37:37;100386.53;;;-4.11;62.00
69737;BME280;64476;55.004;73.342;2023-02-28T03:40:53;100326.47;;;-4.44;62.03
69737;BME280;64476;55.004;73.342;2023-02-28T03:51:26;100363.78;;;-4.18;62.26
69737;BME280;64476;55.004;73.342;2023-02-28T03:54:30;100354.50;;;-4.21;63.11
69737;BME280;64476;55.004;73.342;2023-02-28T04:01:21;100351.97;;;-4.04;61.81
69737;BME280;64476;55.004;73.342;2023-02-28T04:04:30;100273.03;;;-4.35;61.79
69737;BME280;64476;55.004;73.342;2023-02-28T04:08:05;100337.91;;;-3.78;61.71
69737;BME280;64476;55.004;73.342;2023-02-28T04:11:26;100321.59;;;-3.77;60.97
69737;BME280;64476;55.004;73.342;2023-02-28T04:14:31;100275.38;;;-3.77;61.16
69737;BME280;64476;55.004;73.342;2023-02-28T04:17:38;100326.97;;;-3.29;60.69
69737;BME280;64476;55.004;73.342;2023-02-28T04:20:46;100273.53;;;-3.57;60.78
69737;BME280;64476;55.004;73.342;2023-02-28T04:23:53;100325.81;;;-3.23;60.13
69737;BME280;64476;55.004;73.342;2023-02-28T04:26:57;100161.22;;;-4.21;60.28
69737;BME280;64476;55.004;73.342;2023-02-28T04:30:00;100327.34;;;-3.37;60.07
69737;BME280;64476;55.004;73.342;2023-02-28T04:33:43;100304.50;;;-3.60;60.67
69737;BME280;64476;55.004;73.342;2023-02-28T04:36:56;100325.84;;;-3.58;60.71
69737;BME280;64476;55.004;73.342;2023-02-28T04:40:04;100241.84;;;-3.91;60.76
69737;BME280;64476;55.004;73.342;2023-02-28T04:43:13;100301.94;;;-3.43;60.35
69737;BME280;64476;55.004;73.342;2023-02-28T04:46:16;100301.56;;;-3.53;61.13
69737;BME280;64476;55.004;73.342;2023-02-28T04:53:45;100267.44;;;-3.72;60.98
69737;BME280;64476;55.004;73.342;2023-02-28T04:56:47;100291.09;;;-3.65;61.00
69737;BME280;64476;55.004;73.342;2023-02-28T04:59:50;100229.25;;;-3.95;61.28
69737;BME280;64476;55.004;73.342;2023-02-28T05:02:53;100283.16;;;-3.61;61.26
69737;BME280;64476;55.004;73.342;2023-02-28T05:09:34;100278.78;;;-3.59;61.05
69737;BME280;64476;55.004;73.342;2023-02-28T05:12:36;100206.81;;;-4.09;61.54
69737;BME280;64476;55.004;73.342;2023-02-28T05:16:16;100268.13;;;-3.68;61.70
69737;BME280;64476;55.004;73.342;2023-02-28T05:19:21;100102.56;;;-4.64;61.69
69737;BME280;64476;55.004;73.342;2023-02-28T05:22:23;100240.84;;;-3.71;61.56
69737;BME280;64476;55.004;73.342;2023-02-28T05:25:26;100258.81;;;-3.54;61.48
69737;BME280;64476;55.004;73.342;2023-02-28T05:28:32;100248.16;;;-3.63;61.62
69737;BME280;64476;55.004;73.342;2023-02-28T05:31:39;100250.53;;;-3.76;61.38
69737;BME280;64476;55.004;73.342;2023-02-28T05:34:41;100221.16;;;-3.88;61.51
69737;BME280;64476;55.004;73.342;2023-02-28T05:37:43;100183.56;;;-4.06;61.85
69737;BME280;64476;55.004;73.342;2023-02-28T05:40:45;100209.28;;;-3.73;61.60
69737;BME280;64476;55.004;73.342;2023-02-28T05:43:47;100211.72;;;-3.70;61.46
69737;BME280;64476;55.004;73.342;2023-02-28T05:46:49;100190.25;;;-3.86;61.30
69737;BME280;64476;55.004;73.342;2023-02-28T05:49:50;100109.69;;;-4.34;61.45
69737;BME280;64476;55.004;73.342;2023-02-28T05:52:52;100153.13;;;-3.96;60.99
69737;BME280;64476;55.004;73.342;2023-02-28T05:55:59;100148.75;;;-4.12;61.60
69737;BME280;64476;55.004;73.342;2023-02-28T05:59:32;100202.50;;;-3.91;62.29
69737;BME280;64476;55.004;73.342;2023-02-28T06:02:37;100194.56;;;-3.87;61.50
69737;BME280;64476;55.004;73.342;2023-02-28T06:05:40;100125.22;;;-4.37;61.84
69737;BME280;64476;55.004;73.342;2023-02-28T06:09:46;100128.69;;;-4.21;61.73
69737;BME280;64476;55.004;73.342;2023-02-28T06:12:48;100180.38;;;-3.94;61.77
69737;BME280;64476;55.004;73.342;2023-02-28T06:15:50;100116.41;;;-4.14;61.57
69737;BME280;64476;55.004;73.342;2023-02-28T06:18:57;100164.13;;;-3.77;61.86
69737;BME280;64476;55.004;73.342;2023-02-28T06:21:59;100140.69;;;-3.71;61.89
69737;BME280;64476;55.004;73.342;2023-02-28T06:25:02;100136.31;;;-3.69;61.90
69737;BME280;64476;55.004;73.342;2023-02-28T06:28:13;100088.50;;;-3.87;61.73
69737;BME280;64476;55.004;73.342;2023-02-28T06:31:17;100152.13;;;-3.43;62.06
69737;BME280;64476;55.004;73.342;2023-02-28T06:34:19;100084.97;;;-3.69;61.78
69737;BME280;64476;55.004;73.342;2023-02-28T06:37:21;100126.69;;;-3.32;61.55
69737;BME280;64476;55.004;73.342;2023-02-28T06:40:27;100124.84;;;-3.30;61.44
69737;BME280;64476;55.004;73.342;2023-02-28T06:43:34;100126.78;;;-3.18;61.67
69737;BME280;64476;55.004;73.342;2023-02-28T06:46:39;100104.38;;;-3.32;61.33
69737;BME280;64476;55.004;73.342;2023-02-28T06:49:41;100057.22;;;-3.62;61.28
69737;BME280;64476;55.004;73.342;2023-02-28T06:52:48;100089.38;;;-3.39;61.71
69737;BME280;64476;55.004;73.342;2023-02-28T06:55:49;100113.16;;;-3.20;61.51
69737;BME280;64476;55.004;73.342;2023-02-28T06:58:51;100095.78;;;-3.15;61.15
69737;BME280;64476;55.004;73.342;2023-02-28T07:02:01;100098.09;;;-3.10;61.18
69737;BME280;64476;55.004;73.342;2023-02-28T07:05:05;100047.88;;;-3.32;60.94
69737;BME280;64476;55.004;73.342;2023-02-28T07:08:14;100091.09;;;-3.08;61.08
69737;BME280;64476;55.004;73.342;2023-02-28T07:11:18;100078.44;;;-3.11;60.79
69737;BME280;64476;55.004;73.342;2023-02-28T07:14:26;100075.34;;;-3.02;60.32
69737;BME280;64476;55.004;73.342;2023-02-28T07:17:33;100069.81;;;-3.10;60.18
69737;BME280;64476;55.004;73.342;2023-02-28T07:20:35;100012.06;;;-3.35;60.38
69737;BME280;64476;55.004;73.342;2023-02-28T07:23:42;100050.34;;;-3.14;60.31
69737;BME280;64476;55.004;73.342;2023-02-28T07:26:43;99944.88;;;-3.74;60.19
69737;BME280;64476;55.004;73.342;2023-02-28T07:29:45;100041.38;;;-3.07;60.49
69737;BME280;64476;55.004;73.342;2023-02-28T07:32:48;100009.00;;;-3.25;60.00
69737;BME280;64476;55.004;73.342;2023-02-28T07:39:55;99971.34;;;-3.27;59.29
69737;BME280;64476;55.004;73.342;2023-02-28T07:42:59;100047.38;;;-2.76;59.70
69737;BME280;64476;55.004;73.342;2023-02-28T07:46:09;99961.13;;;-3.12;58.94
69737;BME280;64476;55.004;73.342;2023-02-28T07:52:59;100035.38;;;-2.62;59.09
69737;BME280;64476;55.004;73.342;2023-02-28T07:56:04;99992.63;;;-2.78;59.14
69737;BME280;64476;55.004;73.342;2023-02-28T07:59:05;100025.06;;;-2.62;59.39
69737;BME280;64476;55.004;73.342;2023-02-28T08:02:17;100002.44;;;-2.85;59.01
69737;BME280;64476;55.004;73.342;2023-02-28T08:05:24;100015.94;;;-2.82;59.33
69737;BME280;64476;55.004;73.342;2023-02-28T08:08:25;100015.84;;;-2.80;59.71
69737;BME280;64476;55.004;73.342;2023-02-28T08:11:43;99874.00;;;-3.77;59.65
69737;BME280;64476;55.004;73.342;2023-02-28T08:14:52;100013.81;;;-2.89;60.21
69737;BME280;64476;55.004;73.342;2023-02-28T08:17:54;99999.13;;;-2.87;60.33
69737;BME280;64476;55.004;73.342;2023-02-28T08:21:04;99960.34;;;-2.98;59.80
69737;BME280;64476;55.004;73.342;2023-02-28T08:24:06;99995.66;;;-2.72;60.54
69737;BME280;64476;55.004;73.342;2023-02-28T08:27:10;99948.63;;;-2.88;59.88
69737;BME280;64476;55.004;73.342;2023-02-28T08:30:22;99984.75;;;-2.61;59.83
69737;BME280;64476;55.004;73.342;2023-02-28T08:33:25;99942.38;;;-2.84;59.66
69737;BME280;64476;55.004;73.342;2023-02-28T08:36:28;99973.44;;;-2.73;59.98
69737;BME280;64476;55.004;73.342;2023-02-28T08:39:34;99926.91;;;-2.98;60.50
69737;BME280;64476;55.004;73.342;2023-02-28T08:42:37;99958.53;;;-2.68;60.26
69737;BME280;64476;55.004;73.342;2023-02-28T08:45:39;99961.41;;;-2.58;59.76
69737;BME280;64476;55.004;73.342;2023-02-28T08:48:40;99933.75;;;-2.69;60.02
69737;BME280;64476;55.004;73.342;2023-02-28T08:51:42;99932.75;;;-2.66;59.79
69737;BME280;64476;55.004;73.342;2023-02-28T08:54:44;99947.63;;;-2.43;59.80
69737;BME280;64476;55.004;73.342;2023-02-28T08:57:46;99957.88;;;-2.27;59.61
69737;BME280;64476;55.004;73.342;2023-02-28T09:01:27;99960.31;;;-2.11;59.72
69737;BME280;64476;55.004;73.342;2023-02-28T09:05:01;99958.94;;;-2.02;59.44
69737;BME280;64476;55.004;73.342;2023-02-28T09:08:13;99907.84;;;-2.23;59.63
69737;BME280;64476;55.004;73.342;2023-02-28T09:11:17;99955.53;;;-2.03;59.83
69737;BME280;64476;55.004;73.342;2023-02-28T09:14:31;99933.84;;;-2.13;59.79
69737;BME280;64476;55.004;73.342;2023-02-28T09:17:33;99919.25;;;-2.27;59.78
69737;BME280;64476;55.004;73.342;2023-02-28T09:20:37;99929.34;;;-2.24;60.06
69737;BME280;64476;55.004;73.342;2023-02-28T09:23:53;99924.47;;;-2.28;59.52
69737;BME280;64476;55.004;73.342;2023-02-28T09:26:59;99932.81;;;-2.11;59.77
69737;BME280;64476;55.004;73.342;2023-02-28T09:30:12;99913.53;;;-2.18;59.94
69737;BME280;64476;55.004;73.342;2023-02-28T09:33:21;99844.09;;;-2.61;59.75
69737;BME280;64476;55.004;73.342;2023-02-28T09:36:25;99911.22;;;-2.08;60.40
69737;BME280;64476;55.004;73.342;2023-02-28T09:39:27;99926.84;;;-1.97;59.99
69737;BME280;64476;55.004;73.342;2023-02-28T09:42:32;99911.88;;;-2.04;60.35
69737;BME280;64476;55.004;73.342;2023-02-28T09:45:40;99901.00;;;-2.10;60.15
69737;BME280;64476;55.004;73.342;2023-02-28T09:48:48;99858.88;;;-2.36;60.69
69737;BME280;64476;55.004;73.342;2023-02-28T09:52:10;99870.78;;;-2.20;60.52
69737;BME280;64476;55.004;73.342;2023-02-28T09:55:26;99829.84;;;-2.38;60.60
69737;BME280;64476;55.004;73.342;2023-02-28T10:02:25;99880.53;;;-1.84;60.83
69737;BME280;64476;55.004;73.342;2023-02-28T10:09:31;99882.44;;;-1.73;61.06
69737;BME280;64476;55.004;73.342;2023-02-28T10:12:37;99839.00;;;-1.92;61.06
69737;BME280;64476;55.004;73.342;2023-02-28T10:16:29;99879.69;;;-1.58;61.14
69737;BME280;64476;55.004;73.342;2023-02-28T10:20:06;99869.16;;;-1.67;61.50
69737;BME280;64476;55.004;73.342;2023-02-28T10:23:24;99768.75;;;-2.21;61.31
69737;BME280;64476;55.004;73.342;2023-02-28T10:26:28;99846.50;;;-1.62;61.65
69737;BME280;64476;55.004;73.342;2023-02-28T10:29:32;99844.41;;;-1.70;61.62
69737;BME280;64476;55.004;73.342;2023-02-28T10:32:45;99846.31;;;-1.59;61.82
69737;BME280;64476;55.004;73.342;2023-02-28T10:35:53;99792.66;;;-1.92;61.53
69737;BME280;64476;55.004;73.342;2023-02-28T10:38:55;99851.25;;;-1.56;61.66
69737;BME280;64476;55.004;73.342;2023-02-28T10:41:56;99841.78;;;-1.55;61.72
69737;BME280;64476;55.004;73.342;2023-02-28T10:51:24;99833.63;;;-1.62;61.90
69737;BME280;64476;55.004;73.342;2023-02-28T10:54:34;99784.81;;;-1.91;61.95
69737;BME280;64476;55.004;73.342;2023-02-28T10:58:20;99847.31;;;-1.74;63.52
69737;BME280;64476;55.004;73.342;2023-02-28T11:01:44;99835.00;;;-1.84;63.03
69737;BME280;64476;55.004;73.342;2023-02-28T11:04:52;99812.66;;;-2.10;62.68
69737;BME280;64476;55.004;73.342;2023-02-28T11:08:15;99847.03;;;-1.97;64.15
69737;BME280;64476;55.004;73.342;2023-02-28T11:11:18;99839.81;;;-1.92;63.34
69737;BME280;64476;55.004;73.342;2023-02-28T11:14:30;99836.41;;;-1.92;64.02
69737;BME280;64476;55.004;73.342;2023-02-28T11:17:33;99801.66;;;-2.12;63.97
69737;BME280;64476;55.004;73.342;2023-02-28T11:20:52;99765.78;;;-2.42;64.32
69737;BME280;64476;55.004;73.342;2023-02-28T11:24:04;99820.00;;;-2.04;64.32
69737;BME280;64476;55.004;73.342;2023-02-28T11:27:44;99830.25;;;-1.90;64.57
69737;BME280;64476;55.004;73.342;2023-02-28T11:34:23;99809.56;;;-2.15;65.08
69737;BME280;64476;55.004;73.342;2023-02-28T11:37:32;99830.16;;;-2.15;65.12
69737;BME280;64476;55.004;73.342;2023-02-28T11:51:32;99825.72;;;-2.13;65.94
69737;BME280;64476;55.004;73.342;2023-02-28T12:19:17;99840.91;;;-2.09;65.32
69737;BME280;64476;55.004;73.342;2023-02-28T12:22:28;99780.25;;;-2.54;65.00
69737;BME280;64476;55.004;73.342;2023-02-28T12:35:42;99850.03;;;-2.32;65.51
69737;BME280;64476;55.004;73.342;2023-02-28T12:39:08;99863.53;;;-2.28;65.39
69737;BME280;64476;55.004;73.342;2023-02-28T12:42:24;99778.19;;;-2.90;66.24
69737;BME280;64476;55.004;73.342;2023-02-28T12:46:55;99861.81;;;-2.42;65.70
69737;BME280;64476;55.004;73.342;2023-02-28T12:50:08;99854.19;;;-2.43;65.94
69737;BME280;64476;55.004;73.342;2023-02-28T12:53:39;99854.09;;;-2.42;66.48
69737;BME280;64476;55.004;73.342;2023-02-28T12:59:51;99841.63;;;-2.48;66.19
69737;BME280;64476;55.004;73.342;2023-02-28T13:06:40;99865.09;;;-2.25;65.80
69737;BME280;64476;55.004;73.342;2023-02-28T13:09:59;99826.63;;;-2.41;65.95
69737;BME280;64476;55.004;73.342;2023-02-28T13:13:03;99832.00;;;-2.32;65.15
69737;BME280;64476;55.004;73.342;2023-02-28T13:16:10;99839.72;;;-2.17;65.11
69737;BME280;64476;55.004;73.342;2023-02-28T13:19:17;99803.22;;;-2.51;65.46
69737;BME280;64476;55.004;73.342;2023-02-28T13:35:37;99850.38;;;-2.23;65.42
69737;BME280;64476;55.004;73.342;2023-02-28T13:38:46;99845.28;;;-2.38;65.56
69737;BME280;64476;55.004;73.342;2023-02-28T13:46:10;99879.06;;;-2.15;64.99
69737;BME280;64476;55.004;73.342;2023-02-28T13:56:32;99821.84;;;-2.47;64.84
69737;BME280;64476;55.004;73.342;2023-02-28T13:59:46;99892.13;;;-2.18;65.19
69737;BME280;64476;55.004;73.342;2023-02-28T14:03:14;99883.16;;;-2.13;64.87
69737;BME280;64476;55.004;73.342;2023-02-28T14:06:29;99876.94;;;-2.09;64.91
69737;BME280;64476;55.004;73.342;2023-02-28T14:09:37;99837.34;;;-2.35;64.86
69737;BME280;64476;55.004;73.342;2023-02-28T14:16:05;99827.38;;;-2.53;64.94
69737;BME280;64476;55.004;73.342;2023-02-28T14:19:24;99870.16;;;-2.24;65.22
69737;BME280;64476;55.004;73.342;2023-02-28T14:39:31;99880.59;;;-2.13;65.37
69737;BME280;64476;55.004;73.342;2023-02-28T14:43:00;99858.84;;;-2.21;64.97
69737;BME280;64476;55.004;73.342;2023-02-28T14:46:42;99884.28;;;-2.17;65.30
69737;BME280;64476;55.004;73.342;2023-02-28T14:49:45;99876.84;;;-2.21;65.42
69737;BME280;64476;55.004;73.342;2023-02-28T14:52:54;99880.88;;;-2.17;65.35
69737;BME280;64476;55.004;73.342;2023-02-28T14:56:21;99866.38;;;-2.18;65.57
69737;BME280;64476;55.004;73.342;2023-02-28T14:59:29;99850.22;;;-2.35;65.31
69737;BME280;64476;55.004;73.342;2023-02-28T15:02:34;99858.94;;;-2.23;65.62
69737;BME280;64476;55.004;73.342;2023-02-28T15:06:06;99814.50;;;-2.53;65.18
69737;BME280;64476;55.004;73.342;2023-02-28T15:09:18;99872.97;;;-2.14;65.18
69737;BME280;64476;55.004;73.342;2023-02-28T15:12:20;99865.63;;;-2.20;65.31
69737;BME280;64476;55.004;73.342;2023-02-28T15:15:25;99875.19;;;-2.08;64.94
69737;BME280;64476;55.004;73.342;2023-02-28T15:21:46;99849.94;;;-2.16;65.59
69737;BME280;64476;55.004;73.342;2023-02-28T15:24:51;99817.34;;;-2.44;65.27
69737;BME280;64476;55.004;73.342;2023-02-28T15:28:19;99859.03;;;-2.24;65.70
69737;BME280;64476;55.004;73.342;2023-02-28T15:31:31;99869.22;;;-2.09;65.38
69737;BME280;64476;55.004;73.342;2023-02-28T15:37:45;99864.97;;;-2.10;65.34
69737;BME280;64476;55.004;73.342;2023-02-28T15:48:55;99841.44;;;-2.45;66.37
69737;BME280;64476;55.004;73.342;2023-02-28T15:51:59;99867.31;;;-2.34;66.59
69737;BME280;64476;55.004;73.342;2023-02-28T15:55:22;99873.00;;;-2.28;66.43
69737;BME280;64476;55.004;73.342;2023-02-28T15:58:30;99869.78;;;-2.32;66.15
69737;BME280;64476;55.004;73.342;2023-02-28T16:01:35;99792.94;;;-2.80;66.52
69737;BME280;64476;55.004;73.342;2023-02-28T16:04:54;99860.56;;;-2.49;67.31
69737;BME280;64476;55.004;73.342;2023-02-28T16:08:14;99867.88;;;-2.43;66.74
69737;BME280;64476;55.004;73.342;2023-02-28T16:11:26;99831.88;;;-2.57;66.23
69737;BME280;64476;55.004;73.342;2023-02-28T16:14:42;99765.25;;;-2.89;66.86
69737;BME280;64476;55.004;73.342;2023-02-28T16:17:47;99868.97;;;-2.33;66.57
69737;BME280;64476;55.004;73.342;2023-02-28T16:20:54;99785.06;;;-2.76;66.22
69737;BME280;64476;55.004;73.342;2023-02-28T16:23:56;99859.78;;;-2.22;66.07
69737;BME280;64476;55.004;73.342;2023-02-28T16:27:32;99814.03;;;-2.46;66.74
69737;BME280;64476;55.004;73.342;2023-02-28T16:30:36;99803.56;;;-2.43;66.19
69737;BME280;64476;55.004;73.342;2023-02-28T16:33:38;99860.91;;;-1.99;66.17
69737;BME280;64476;55.004;73.342;2023-02-28T16:40:17;99838.41;;;-2.10;66.16
69737;BME280;64476;55.004;73.342;2023-02-28T16:43:28;99784.53;;;-2.40;65.88
69737;BME280;64476;55.004;73.342;2023-02-28T16:46:33;99816.69;;;-2.06;65.72
69737;BME280;64476;55.004;73.342;2023-02-28T16:49:38;99845.72;;;-1.77;65.43
69737;BME280;64476;55.004;73.342;2023-02-28T16:52:43;99842.53;;;-1.80;65.55
69737;BME280;64476;55.004;73.342;2023-02-28T16:55:47;99826.56;;;-1.86;65.46
69737;BME280;64476;55.004;73.342;2023-02-28T16:59:24;99844.53;;;-1.71;65.22
69737;BME280;64476;55.004;73.342;2023-02-28T17:02:40;99783.53;;;-2.11;65.34
69737;BME280;64476;55.004;73.342;2023-02-28T17:05:46;99784.72;;;-1.89;65.08
69737;BME280;64476;55.004;73.342;2023-02-28T17:08:53;99798.94;;;-1.84;64.85
69737;BME280;64476;55.004;73.342;2023-02-28T17:11:56;99812.00;;;-1.60;65.03
69737;BME280;64476;55.004;73.342;2023-02-28T17:15:02;99824.19;;;-1.49;64.52
69737;BME280;64476;55.004;73.342;2023-02-28T17:18:05;99838.81;;;-1.37;64.54
69737;BME280;64476;55.004;73.342;2023-02-28T17:21:19;99751.56;;;-1.94;64.58
69737;BME280;64476;55.004;73.342;2023-02-28T17:24:21;99815.31;;;-1.45;64.61
69737;BME280;64476;55.004;73.342;2023-02-28T17:27:23;99782.28;;;-1.65;64.58
69737;BME280;64476;55.004;73.342;2023-02-28T17:30:26;99834.78;;;-1.28;63.96
69737;BME280;64476;55.004;73.342;2023-02-28T17:33:37;99818.19;;;-1.37;63.99
69737;BME280;64476;55.004;73.342;2023-02-28T17:36:51;99779.22;;;-1.45;64.25
69737;BME280;64476;55.004;73.342;2023-02-28T17:39:54;99799.03;;;-1.20;64.11
69737;BME280;64476;55.004;73.342;2023-02-28T17:43:06;99800.56;;;-1.17;63.94
69737;BME280;64476;55.004;73.342;2023-02-28T17:46:19;99812.34;;;-1.00;63.78
69737;BME280;64476;55.004;73.342;2023-02-28T17:49:23;99811.31;;;-1.11;63.85
69737;BME280;64476;55.004;73.342;2023-02-28T17:52:25;99800.78;;;-1.20;63.98
69737;BME280;64476;55.004;73.342;2023-02-28T17:55:32;99811.31;;;-1.23;64.02
69737;BME280;64476;55.004;73.342;2023-02-28T17:58:35;99762.41;;;-1.50;63.99
69737;BME280;64476;55.004;73.342;2023-02-28T18:05:25;99703.44;;;-1.93;64.55
69737;BME280;64476;55.004;73.342;2023-02-28T18:08:32;99747.78;;;-1.63;64.28
69737;BME280;64476;55.004;73.342;2023-02-28T18:11:36;99786.66;;;-1.27;64.50
69737;BME280;64476;55.004;73.342;2023-02-28T18:14:42;99755.31;;;-1.34;64.41
69737;BME280;64476;55.004;73.342;2023-02-28T18:17:56;99783.56;;;-1.20;64.19
69737;BME280;64476;55.004;73.342;2023-02-28T18:21:04;99782.13;;;-1.11;64.32
69737;BME280;64476;55.004;73.342;2023-02-28T18:24:06;99793.16;;;-1.09;64.03
69737;BME280;64476;55.004;73.342;2023-02-28T18:27:08;99785.00;;;-1.16;63.93
69737;BME280;64476;55.004;73.342;2023-02-28T18:30:11;99756.44;;;-1.25;63.94
69737;BME280;64476;55.004;73.342;2023-02-28T18:33:59;99728.09;;;-1.51;63.85
69737;BME280;64476;55.004;73.342;2023-02-28T18:37:06;99772.03;;;-1.27;63.93
69737;BME280;64476;55.004;73.342;2023-02-28T18:40:18;99774.88;;;-1.31;64.17
69737;BME280;64476;55.004;73.342;2023-02-28T18:43:20;99756.84;;;-1.44;64.40
69737;BME280;64476;55.004;73.342;2023-02-28T18:46:22;99775.94;;;-1.34;64.22
69737;BME280;64476;55.004;73.342;2023-02-28T18:49:23;99777.06;;;-1.38;64.39
69737;BME280;64476;55.004;73.342;2023-02-28T18:52:25;99766.97;;;-1.41;64.02
69737;BME280;64476;55.004;73.342;2023-02-28T18:56:08;99804.50;;;-1.12;64.17
69737;BME280;64476;55.004;73.342;2023-02-28T18:59:25;99791.50;;;-1.10;64.11
69737;BME280;64476;55.004;73.342;2023-02-28T19:02:32;99788.28;;;-1.14;64.17
69737;BME280;64476;55.004;73.342;2023-02-28T19:05:44;99805.53;;;-1.01;63.81
69737;BME280;64476;55.004;73.342;2023-02-28T19:08:57;99798.72;;;-1.02;63.77
69737;BME280;64476;55.004;73.342;2023-02-28T19:12:04;99779.25;;;-1.19;63.79
69737;BME280;64476;55.004;73.342;2023-02-28T19:15:06;99778.94;;;-1.27;64.51
69737;BME280;64476;55.004;73.342;2023-02-28T19:18:08;99790.59;;;-1.35;64.64
69737;BME280;64476;55.004;73.342;2023-02-28T19:21:22;99812.53;;;-1.29;64.67
69737;BME280;64476;55.004;73.342;2023-02-28T19:24:27;99802.34;;;-1.30;64.28
69737;BME280;64476;55.004;73.342;2023-02-28T19:27:34;99802.41;;;-1.32;64.50
69737;BME280;64476;55.004;73.342;2023-02-28T19:30:36;99738.41;;;-1.64;64.50
69737;BME280;64476;55.004;73.342;2023-02-28T19:33:39;99691.41;;;-1.93;64.30
69737;BME280;64476;55.004;73.342;2023-02-28T19:36:40;99765.94;;;-1.51;64.20